Weather at Antonio Agostinho-Neto International Airport

Public forecast

Using degrees Celsius for public forecast. Weather courtesy of forecast.io.

Current aviation weather report (METAR) for Antonio Agostinho-Neto International Airport

Report is more than 6 hours old.

2022/11/14 15:00 (retrieved 2 years ago)

FCPP 141500Z 23012KT 200V270 9999 FEW020 FEW030CB 28/23 Q1010 NOSIG

Aviation forecast (TAF) for Antonio Agostinho-Neto International Airport

Forecast is more than 12 hours old.

2023/02/22 12:36 (retrieved 1 year ago)

TAF FCPP 221100Z 2212/2312 18010KT 9999 SCT010 BKN023 FEW030CB TEMPO 2218/2221 -TSRA BECMG 2222/2224 VRB03KT SCT010 BKN023